Time;durP1;ratioP1;P1;durP2;ratioP2;P2;SDS_P1;SDS_P2;PMS_P1;PMS_P2;Temp;Humidity;BMP_temperature;BMP_pressure;BME280_temperature;BME280_humidity;BME280_pressure;Samples;Min_cycle;Max_cycle;Signal;HPM_P1;HPM_P2
2022/10/01 00:00:55;;;;;;;0.00;0.00;;;;;;;;;;5122084;28;20055;-72
2022/10/01 00:03:22;;;;;;;5.10;4.57;;;;;;;;;;5129504;28;20069;-72
2022/10/01 00:05:59;;;;;;;0.00;0.00;;;;;;;;;;5131247;28;20045;-72
2022/10/01 00:08:26;;;;;;;0.28;0.28;;;;;;;;;;5117323;28;20020;-72
2022/10/01 00:10:52;;;;;;;0.00;0.00;;;;;;;;;;5117801;28;20114;-72
2022/10/01 00:13:19;;;;;;;1.65;1.27;;;;;;;;;;5118394;28;20034;-72
2022/10/01 00:15:46;;;;;;;0.00;0.00;;;;;;;;;;5122063;28;20020;-72
2022/10/01 00:18:13;;;;;;;0.00;0.00;;;;;;;;;;5102388;28;20027;-73
2022/10/01 00:20:42;;;;;;;0.52;0.52;;;;;;;;;;5117109;28;20080;-73
2022/10/01 00:23:11;;;;;;;1.48;0.93;;;;;;;;;;5098915;28;20087;-73
2022/10/01 00:25:38;;;;;;;2.67;0.95;;;;;;;;;;5098548;28;20504;-72
2022/10/01 00:28:05;;;;;;;5.55;2.17;;;;;;;;;;5116866;28;20520;-72
2022/10/01 00:30:32;;;;;;;6.68;0.88;;;;;;;;;;5116577;28;20019;-72
2022/10/01 00:32:58;;;;;;;0.70;0.65;;;;;;;;;;5116287;28;20023;-72
2022/10/01 00:35:24;;;;;;;1.23;1.17;;;;;;;;;;5116225;28;20027;-72
2022/10/01 00:37:51;;;;;;;3.90;1.13;;;;;;;;;;5116596;28;20063;-73
2022/10/01 00:40:18;;;;;;;0.00;0.00;;;;;;;;;;5116596;28;20049;-73
2022/10/01 00:42:45;;;;;;;12.43;1.13;;;;;;;;;;5098535;28;20111;-72
2022/10/01 00:45:12;;;;;;;0.82;0.70;;;;;;;;;;5097967;28;20023;-72
2022/10/01 00:47:40;;;;;;;3.78;3.58;;;;;;;;;;5098241;28;20024;-72
2022/10/01 00:50:15;;;;;;;0.47;0.28;;;;;;;;;;5116153;28;20019;-72
2022/10/01 00:52:42;;;;;;;12.93;2.63;;;;;;;;;;5119892;28;20024;-72
2022/10/01 00:55:17;;;;;;;6.97;1.27;;;;;;;;;;5116470;28;20507;-72
2022/10/01 00:57:44;;;;;;;0.47;0.30;;;;;;;;;;5116943;28;20073;-72
2022/10/01 01:00:12;;;;;;;0.65;0.55;;;;;;;;;;5102591;27;20045;-72
2022/10/01 01:02:38;;;;;;;7.35;1.85;;;;;;;;;;5113664;27;20031;-72
2022/10/01 01:05:05;;;;;;;2.28;0.88;;;;;;;;;;5117927;27;20042;-72
2022/10/01 01:07:32;;;;;;;0.85;0.40;;;;;;;;;;5136338;27;20381;-73
2022/10/01 01:09:59;;;;;;;18.00;1.55;;;;;;;;;;5102784;27;20031;-73
2022/10/01 01:12:26;;;;;;;9.32;1.40;;;;;;;;;;5097517;28;20496;-72
2022/10/01 01:15:04;;;;;;;1.35;1.35;;;;;;;;;;5115497;28;20032;-73
2022/10/01 01:17:39;;;;;;;0.65;0.65;;;;;;;;;;5114961;28;20492;-73
2022/10/01 01:20:18;;;;;;;3.42;0.55;;;;;;;;;;5126026;27;20030;-72
2022/10/01 01:22:54;;;;;;;5.18;2.75;;;;;;;;;;5099955;27;20031;-72
2022/10/01 01:25:31;;;;;;;4.93;0.70;;;;;;;;;;5105909;28;20023;-71
2022/10/01 01:28:03;;;;;;;4.07;1.63;;;;;;;;;;5102174;27;20130;-71
2022/10/01 01:30:31;;;;;;;1.70;0.35;;;;;;;;;;5121774;27;20020;-71
2022/10/01 01:33:02;;;;;;;1.45;1.35;;;;;;;;;;5110198;27;20212;-73
2022/10/01 01:35:34;;;;;;;0.93;0.80;;;;;;;;;;5123158;27;20019;-72
2022/10/01 01:38:03;;;;;;;0.47;0.40;;;;;;;;;;5115406;28;20098;-71
2022/10/01 01:40:30;;;;;;;1.38;0.77;;;;;;;;;;5115251;28;20044;-72
2022/10/01 01:42:57;;;;;;;0.25;0.15;;;;;;;;;;5115540;28;20039;-71
2022/10/01 01:45:27;;;;;;;7.60;1.85;;;;;;;;;;5114819;27;20080;-72
2022/10/01 01:47:55;;;;;;;0.38;0.30;;;;;;;;;;5131395;27;20029;-72
2022/10/01 01:50:24;;;;;;;0.30;0.30;;;;;;;;;;5130118;27;20458;-73
2022/10/01 01:52:51;;;;;;;0.85;0.50;;;;;;;;;;5100465;28;20080;-72
2022/10/01 01:55:18;;;;;;;0.55;0.40;;;;;;;;;;5123731;27;20485;-72
2022/10/01 01:57:44;;;;;;;8.48;1.17;;;;;;;;;;5101920;28;20101;-73
2022/10/01 02:00:11;;;;;;;0.70;0.68;;;;;;;;;;5122130;27;20023;-73
2022/10/01 02:02:39;;;;;;;5.75;1.67;;;;;;;;;;5127893;27;20423;-73
2022/10/01 02:05:17;;;;;;;6.70;2.15;;;;;;;;;;5118454;27;20063;-72
2022/10/01 02:08:02;;;;;;;0.93;0.90;;;;;;;;;;5123100;27;20080;-73
2022/10/01 02:10:38;;;;;;;1.80;1.65;;;;;;;;;;5117506;27;20088;-72
2022/10/01 02:13:24;;;;;;;3.40;0.98;;;;;;;;;;5133267;27;20419;-73
2022/10/01 02:15:54;;;;;;;0.20;0.20;;;;;;;;;;5128408;27;20027;-73
2022/10/01 02:18:47;;;;;;;0.57;0.57;;;;;;;;;;5141889;27;20015;-73
2022/10/01 02:21:25;;;;;;;1.75;1.02;;;;;;;;;;5139641;27;20433;-74
2022/10/01 02:24:04;;;;;;;1.80;0.77;;;;;;;;;;5126298;27;20035;-74
2022/10/01 02:26:31;;;;;;;1.33;1.05;;;;;;;;;;5129089;27;20023;-75
2022/10/01 02:29:05;;;;;;;2.35;0.68;;;;;;;;;;5130815;27;20051;-75
2022/10/01 02:31:32;;;;;;;0.38;0.38;;;;;;;;;;5122409;27;20023;-75
2022/10/01 02:33:59;;;;;;;15.38;2.15;;;;;;;;;;5121801;27;20031;-74
2022/10/01 02:36:27;;;;;;;0.13;0.13;;;;;;;;;;5130864;27;20027;-74
2022/10/01 02:38:54;;;;;;;9.90;2.15;;;;;;;;;;5131824;27;20071;-76
2022/10/01 02:41:23;;;;;;;14.95;3.60;;;;;;;;;;5132216;27;20099;-75
2022/10/01 02:43:54;;;;;;;3.83;1.17;;;;;;;;;;5118103;27;20046;-76
2022/10/01 02:46:31;;;;;;;0.73;0.73;;;;;;;;;;5127293;27;20047;-76
2022/10/01 02:49:01;;;;;;;1.00;1.00;;;;;;;;;;5118705;27;20110;-74
2022/10/01 02:51:48;;;;;;;4.63;0.65;;;;;;;;;;5127156;27;20015;-75
2022/10/01 02:54:17;;;;;;;0.40;0.40;;;;;;;;;;5128084;27;20089;-75
2022/10/01 02:59:28;;;;;;;0.00;0.00;;;;;;;;;;5133559;27;20050;-75
2022/10/01 03:01:54;;;;;;;5.15;0.80;;;;;;;;;;5116186;27;20027;-75
2022/10/01 03:04:21;;;;;;;0.10;0.10;;;;;;;;;;5134685;27;20027;-74
2022/10/01 03:06:47;;;;;;;0.00;0.00;;;;;;;;;;5131408;27;20023;-75
2022/10/01 03:09:13;;;;;;;1.65;0.98;;;;;;;;;;5133867;27;20440;-74
2022/10/01 03:11:41;;;;;;;0.00;0.00;;;;;;;;;;5130743;27;20019;-75
2022/10/01 03:14:09;;;;;;;4.05;0.47;;;;;;;;;;5130917;27;20285;-73
2022/10/01 03:16:35;;;;;;;0.95;0.82;;;;;;;;;;5117744;27;20038;-73
2022/10/01 03:19:01;;;;;;;0.40;0.40;;;;;;;;;;5136494;27;20447;-74
2022/10/01 03:21:28;;;;;;;2.92;1.15;;;;;;;;;;5128646;27;20153;-74
2022/10/01 03:23:54;;;;;;;0.00;0.00;;;;;;;;;;5126772;27;20182;-73
2022/10/01 03:26:21;;;;;;;0.00;0.00;;;;;;;;;;5131294;28;20108;-74
2022/10/01 03:28:47;;;;;;;5.28;4.95;;;;;;;;;;5127591;28;20016;-74
2022/10/01 03:31:13;;;;;;;1.67;0.57;;;;;;;;;;5130247;27;20023;-74
2022/10/01 03:33:41;;;;;;;0.10;0.10;;;;;;;;;;5130982;28;20022;-75
2022/10/01 03:36:07;;;;;;;9.18;4.22;;;;;;;;;;5129589;28;20027;-74
2022/10/01 03:38:33;;;;;;;5.22;1.48;;;;;;;;;;5133504;27;20053;-75
2022/10/01 03:41:00;;;;;;;0.00;0.00;;;;;;;;;;5131438;27;20100;-74
2022/10/01 03:43:27;;;;;;;3.22;1.83;;;;;;;;;;5128392;27;20031;-73
2022/10/01 03:45:55;;;;;;;0.17;0.17;;;;;;;;;;5110474;27;20019;-73
2022/10/01 03:48:22;;;;;;;6.13;2.05;;;;;;;;;;5138255;27;20020;-72
2022/10/01 03:50:58;;;;;;;4.65;1.15;;;;;;;;;;5129684;27;20437;-74
2022/10/01 03:53:26;;;;;;;2.97;1.48;;;;;;;;;;5133315;27;20025;-75
2022/10/01 03:55:52;;;;;;;0.30;0.30;;;;;;;;;;5135535;27;20023;-73
2022/10/01 03:58:19;;;;;;;1.27;1.15;;;;;;;;;;5107749;27;20023;-73
2022/10/01 04:00:46;;;;;;;0.32;0.30;;;;;;;;;;5126855;27;20011;-73
2022/10/01 04:03:13;;;;;;;1.55;0.73;;;;;;;;;;5133872;27;20026;-75
2022/10/01 04:05:39;;;;;;;0.98;0.52;;;;;;;;;;5126942;27;20069;-74
2022/10/01 04:08:06;;;;;;;0.10;0.10;;;;;;;;;;5126189;27;20094;-76
2022/10/01 04:10:32;;;;;;;0.20;0.20;;;;;;;;;;5112729;27;20023;-74
2022/10/01 04:12:58;;;;;;;0.00;0.00;;;;;;;;;;5106367;27;20078;-74
2022/10/01 04:15:25;;;;;;;3.10;1.00;;;;;;;;;;5124486;27;20027;-75
2022/10/01 04:17:51;;;;;;;0.15;0.15;;;;;;;;;;5137829;27;20046;-75
2022/10/01 04:20:17;;;;;;;0.00;0.00;;;;;;;;;;5128225;27;20042;-74
2022/10/01 04:22:45;;;;;;;5.15;2.83;;;;;;;;;;5129158;27;20028;-74
2022/10/01 04:25:11;;;;;;;2.40;2.30;;;;;;;;;;5126896;27;20015;-75
2022/10/01 04:27:41;;;;;;;0.63;0.63;;;;;;;;;;5128373;27;20030;-75
2022/10/01 04:30:08;;;;;;;0.00;0.00;;;;;;;;;;5131179;27;20111;-75
2022/10/01 04:32:35;;;;;;;5.53;3.30;;;;;;;;;;5128421;27;20028;-74
2022/10/01 04:35:03;;;;;;;11.00;10.35;;;;;;;;;;5118736;27;20039;-74
2022/10/01 04:37:30;;;;;;;0.00;0.00;;;;;;;;;;5126177;27;20501;-77
2022/10/01 04:39:56;;;;;;;3.10;2.20;;;;;;;;;;5125029;27;20061;-74
2022/10/01 04:42:22;;;;;;;3.90;3.60;;;;;;;;;;5122430;27;20027;-75
2022/10/01 04:44:49;;;;;;;8.20;2.42;;;;;;;;;;5102392;27;20118;-75
2022/10/01 04:47:37;;;;;;;5.55;5.07;;;;;;;;;;5127601;27;20473;-75
2022/10/01 04:50:03;;;;;;;18.20;7.22;;;;;;;;;;5136353;27;20453;-73
2022/10/01 04:52:29;;;;;;;16.98;2.90;;;;;;;;;;5116115;27;20064;-74
2022/10/01 04:54:56;;;;;;;24.30;3.15;;;;;;;;;;5115882;27;20027;-74
2022/10/01 04:57:22;;;;;;;6.15;4.47;;;;;;;;;;5133763;27;20058;-74
2022/10/01 04:59:49;;;;;;;24.00;7.47;;;;;;;;;;5130563;27;20065;-74
2022/10/01 05:02:16;;;;;;;21.65;8.95;;;;;;;;;;5133832;27;20030;-74
2022/10/01 05:04:43;;;;;;;1.85;1.15;;;;;;;;;;5136038;27;20101;-75
2022/10/01 05:07:09;;;;;;;1.05;1.05;;;;;;;;;;5129789;27;20084;-75
2022/10/01 05:09:35;;;;;;;2.13;1.95;;;;;;;;;;5133035;27;20022;-74
2022/10/01 05:12:02;;;;;;;0.00;0.00;;;;;;;;;;5115472;27;20027;-74
2022/10/01 05:14:29;;;;;;;5.10;4.68;;;;;;;;;;5124565;27;20081;-75
2022/10/01 05:16:55;;;;;;;6.40;3.80;;;;;;;;;;5132693;27;20062;-74
2022/10/01 05:19:22;;;;;;;17.73;13.85;;;;;;;;;;5136041;27;20042;-73
2022/10/01 05:21:48;;;;;;;10.95;5.53;;;;;;;;;;5136038;27;20012;-74
2022/10/01 05:24:14;;;;;;;12.82;7.13;;;;;;;;;;5117231;27;20382;-74
2022/10/01 05:26:41;;;;;;;0.22;0.22;;;;;;;;;;5130456;27;20019;-74
2022/10/01 05:29:07;;;;;;;1.70;1.38;;;;;;;;;;5134989;27;20020;-73
2022/10/01 05:31:34;;;;;;;15.20;4.13;;;;;;;;;;5127314;27;20377;-75
2022/10/01 05:34:00;;;;;;;0.50;0.50;;;;;;;;;;5133628;27;20552;-74
2022/10/01 05:36:26;;;;;;;1.45;1.40;;;;;;;;;;5128684;27;20401;-74
2022/10/01 05:38:52;;;;;;;19.02;8.65;;;;;;;;;;5129814;27;20019;-75
2022/10/01 05:41:19;;;;;;;0.43;0.43;;;;;;;;;;5113676;27;20055;-73
2022/10/01 05:43:48;;;;;;;5.00;2.35;;;;;;;;;;5104781;28;20028;-74
2022/10/01 05:46:14;;;;;;;0.00;0.00;;;;;;;;;;5110549;28;20019;-75
2022/10/01 05:48:41;;;;;;;0.65;0.65;;;;;;;;;;5109445;28;20095;-75
2022/10/01 05:51:07;;;;;;;0.68;0.65;;;;;;;;;;5110014;28;20037;-75
2022/10/01 05:53:36;;;;;;;5.10;1.13;;;;;;;;;;5110333;27;20027;-73
2022/10/01 05:56:03;;;;;;;0.40;0.40;;;;;;;;;;5123814;27;20277;-75
2022/10/01 05:58:29;;;;;;;3.78;3.00;;;;;;;;;;5143606;27;20031;-75
2022/10/01 06:00:56;;;;;;;3.55;3.35;;;;;;;;;;5140859;27;20023;-75
2022/10/01 06:03:22;;;;;;;1.58;1.48;;;;;;;;;;5133319;27;20023;-76
2022/10/01 06:05:48;;;;;;;25.33;3.05;;;;;;;;;;5119628;27;20019;-74
2022/10/01 06:08:15;;;;;;;0.00;0.00;;;;;;;;;;5137823;27;20035;-75
2022/10/01 06:10:41;;;;;;;3.35;3.13;;;;;;;;;;5114508;27;20027;-75
2022/10/01 06:13:07;;;;;;;1.65;1.55;;;;;;;;;;5135079;27;20027;-75
2022/10/01 06:15:38;;;;;;;0.32;0.32;;;;;;;;;;5120119;27;20073;-75
2022/10/01 06:18:08;;;;;;;13.07;10.82;;;;;;;;;;5129915;27;20031;-74
2022/10/01 06:20:35;;;;;;;4.22;2.08;;;;;;;;;;5131625;27;20027;-74
2022/10/01 06:23:04;;;;;;;14.38;3.92;;;;;;;;;;5115574;27;20419;-75
2022/10/01 06:25:31;;;;;;;0.70;0.70;;;;;;;;;;5131044;27;20022;-76
2022/10/01 06:27:59;;;;;;;9.60;3.15;;;;;;;;;;5118544;27;20022;-74
2022/10/01 06:30:28;;;;;;;0.10;0.10;;;;;;;;;;5127387;27;20426;-74
2022/10/01 06:33:09;;;;;;;5.53;1.75;;;;;;;;;;5128291;27;20027;-75
2022/10/01 06:35:36;;;;;;;2.05;1.90;;;;;;;;;;5109677;27;20055;-76
2022/10/01 06:38:02;;;;;;;0.50;0.08;;;;;;;;;;5111487;27;20541;-75
2022/10/01 06:40:38;;;;;;;3.63;2.10;;;;;;;;;;5130767;27;20055;-78
2022/10/01 06:43:06;;;;;;;2.30;2.17;;;;;;;;;;5132471;27;20019;-75
2022/10/01 06:45:36;;;;;;;2.78;2.55;;;;;;;;;;5133730;27;20015;-76
2022/10/01 06:48:03;;;;;;;16.30;5.57;;;;;;;;;;5107457;27;20445;-76
2022/10/01 06:50:30;;;;;;;3.25;2.95;;;;;;;;;;5134982;27;20027;-74
2022/10/01 06:52:57;;;;;;;1.38;1.27;;;;;;;;;;5111934;27;20385;-75
2022/10/01 06:55:30;;;;;;;0.00;0.00;;;;;;;;;;5113261;27;20033;-75
2022/10/01 06:58:00;;;;;;;5.45;2.72;;;;;;;;;;5131451;27;20035;-76
2022/10/01 07:00:27;;;;;;;3.75;0.43;;;;;;;;;;5130129;27;20093;-75
2022/10/01 07:02:56;;;;;;;10.07;7.38;;;;;;;;;;5120847;27;20055;-75
2022/10/01 07:05:26;;;;;;;3.72;0.82;;;;;;;;;;5128766;27;20076;-75
2022/10/01 07:07:52;;;;;;;0.00;0.00;;;;;;;;;;5116381;27;20050;-75
2022/10/01 07:10:20;;;;;;;0.20;0.20;;;;;;;;;;5123830;27;20098;-75
2022/10/01 07:12:50;;;;;;;0.45;0.45;;;;;;;;;;5124936;27;20015;-75
2022/10/01 07:15:17;;;;;;;0.30;0.30;;;;;;;;;;5131406;27;20015;-76
2022/10/01 07:17:45;;;;;;;1.67;1.52;;;;;;;;;;5130791;27;20027;-76
2022/10/01 07:20:13;;;;;;;0.70;0.55;;;;;;;;;;5123178;27;20027;-76
2022/10/01 07:22:40;;;;;;;1.55;0.65;;;;;;;;;;5101036;28;20035;-76
2022/10/01 07:25:07;;;;;;;1.58;0.52;;;;;;;;;;5118052;28;20027;-75
2022/10/01 07:27:33;;;;;;;1.20;0.40;;;;;;;;;;5106295;28;20058;-75
2022/10/01 07:29:59;;;;;;;0.82;0.82;;;;;;;;;;5119115;28;20092;-76
2022/10/01 07:32:26;;;;;;;0.38;0.32;;;;;;;;;;5120152;28;20024;-76
2022/10/01 07:34:52;;;;;;;0.30;0.30;;;;;;;;;;5125087;27;20496;-76
2022/10/01 07:37:18;;;;;;;0.00;0.00;;;;;;;;;;5126824;28;20035;-75
2022/10/01 07:39:45;;;;;;;0.00;0.00;;;;;;;;;;5109456;28;20109;-76
2022/10/01 07:42:11;;;;;;;0.00;0.00;;;;;;;;;;5129290;28;20043;-75
2022/10/01 07:44:37;;;;;;;0.95;0.95;;;;;;;;;;5126877;27;20038;-76
2022/10/01 07:47:04;;;;;;;0.10;0.10;;;;;;;;;;5126244;27;20057;-75
2022/10/01 07:49:30;;;;;;;0.40;0.15;;;;;;;;;;5127315;28;20106;-76
2022/10/01 07:51:57;;;;;;;0.10;0.10;;;;;;;;;;5126654;28;20056;-75
2022/10/01 07:54:24;;;;;;;0.00;0.00;;;;;;;;;;5128991;28;20015;-75
2022/10/01 07:56:51;;;;;;;0.00;0.00;;;;;;;;;;5125623;28;20058;-75
2022/10/01 07:59:18;;;;;;;0.40;0.28;;;;;;;;;;5121288;28;20423;-76
2022/10/01 08:01:47;;;;;;;0.00;0.00;;;;;;;;;;5126228;28;20027;-75
2022/10/01 08:06:58;;;;;;;5.93;2.22;;;;;;;;;;5118067;28;20034;-74
2022/10/01 08:09:25;;;;;;;9.23;0.93;;;;;;;;;;5124452;28;20031;-74
2022/10/01 08:11:51;;;;;;;0.10;0.10;;;;;;;;;;5129127;28;20023;-74
2022/10/01 08:14:18;;;;;;;0.10;0.10;;;;;;;;;;5135121;28;20024;-74
2022/10/01 08:16:46;;;;;;;2.70;2.50;;;;;;;;;;5134913;28;20027;-75
2022/10/01 08:19:13;;;;;;;0.93;0.82;;;;;;;;;;5139107;27;20082;-75
2022/10/01 08:21:40;;;;;;;0.00;0.00;;;;;;;;;;5113748;28;20125;-75
2022/10/01 08:24:06;;;;;;;0.00;0.00;;;;;;;;;;5105693;28;20027;-75
2022/10/01 08:26:33;;;;;;;5.25;2.97;;;;;;;;;;5102798;27;20031;-75
2022/10/01 08:28:59;;;;;;;1.00;0.95;;;;;;;;;;5113797;27;20035;-76
2022/10/01 08:31:25;;;;;;;0.47;0.38;;;;;;;;;;5127969;27;20039;-75
2022/10/01 08:33:52;;;;;;;0.00;0.00;;;;;;;;;;5129862;27;20533;-75
2022/10/01 08:36:19;;;;;;;0.00;0.00;;;;;;;;;;5116139;27;20027;-74
2022/10/01 08:38:46;;;;;;;0.05;0.00;;;;;;;;;;5126208;27;20027;-75
2022/10/01 08:41:22;;;;;;;0.00;0.00;;;;;;;;;;5129032;27;20058;-75
2022/10/01 08:43:50;;;;;;;0.35;0.35;;;;;;;;;;5124664;27;20011;-76
2022/10/01 08:46:22;;;;;;;1.85;1.58;;;;;;;;;;5114218;27;20380;-75
2022/10/01 08:49:08;;;;;;;0.03;0.03;;;;;;;;;;5133463;27;20022;-74
2022/10/01 08:51:39;;;;;;;1.55;0.85;;;;;;;;;;5134064;27;20027;-75
2022/10/01 08:54:18;;;;;;;4.32;1.13;;;;;;;;;;5116687;27;20088;-74
2022/10/01 08:56:46;;;;;;;0.08;0.08;;;;;;;;;;5113317;27;20076;-74
2022/10/01 08:59:29;;;;;;;0.32;0.32;;;;;;;;;;5114293;27;20023;-73
2022/10/01 09:01:57;;;;;;;0.00;0.00;;;;;;;;;;5112561;27;20507;-74
2022/10/01 09:04:24;;;;;;;0.10;0.10;;;;;;;;;;5128463;27;20031;-75
2022/10/01 09:06:55;;;;;;;0.10;0.10;;;;;;;;;;5136268;27;20514;-74
2022/10/01 09:09:36;;;;;;;0.00;0.00;;;;;;;;;;5122789;27;20489;-74
2022/10/01 09:12:03;;;;;;;0.00;0.00;;;;;;;;;;5132662;27;20082;-75
2022/10/01 09:14:34;;;;;;;0.00;0.00;;;;;;;;;;5110586;27;20031;-75
2022/10/01 09:17:12;;;;;;;0.00;0.00;;;;;;;;;;5110295;27;20038;-74
2022/10/01 09:19:58;;;;;;;0.00;0.00;;;;;;;;;;5120548;27;20080;-75
2022/10/01 09:22:28;;;;;;;0.10;0.10;;;;;;;;;;5112150;27;20076;-74
2022/10/01 09:25:20;;;;;;;0.30;0.30;;;;;;;;;;5128923;27;20102;-75
2022/10/01 09:27:46;;;;;;;0.38;0.20;;;;;;;;;;5115601;27;20032;-74
2022/10/01 09:30:18;;;;;;;0.00;0.00;;;;;;;;;;5124979;27;20419;-76
2022/10/01 09:32:48;;;;;;;2.72;1.35;;;;;;;;;;5127290;27;20019;-74
2022/10/01 09:35:20;;;;;;;0.00;0.00;;;;;;;;;;5134333;27;20414;-74
2022/10/01 09:37:54;;;;;;;2.13;0.93;;;;;;;;;;5128758;27;20027;-75
2022/10/01 09:40:27;;;;;;;0.00;0.00;;;;;;;;;;5117316;27;20039;-75
2022/10/01 09:42:53;;;;;;;0.60;0.40;;;;;;;;;;5113140;27;20558;-75
2022/10/01 09:45:20;;;;;;;0.00;0.00;;;;;;;;;;5117328;27;20034;-74
2022/10/01 09:47:49;;;;;;;6.60;1.05;;;;;;;;;;5112523;27;20020;-74
2022/10/01 09:50:17;;;;;;;0.20;0.10;;;;;;;;;;5118769;27;20365;-74
2022/10/01 09:52:47;;;;;;;0.00;0.00;;;;;;;;;;5122051;27;20388;-74
2022/10/01 09:55:32;;;;;;;0.00;0.00;;;;;;;;;;5121490;27;20023;-74
2022/10/01 09:58:08;;;;;;;0.00;0.00;;;;;;;;;;5126087;27;20106;-74
2022/10/01 10:00:35;;;;;;;0.00;0.00;;;;;;;;;;5122634;27;20077;-74
2022/10/01 10:03:02;;;;;;;4.53;1.25;;;;;;;;;;5124024;27;20027;-73
2022/10/01 10:05:29;;;;;;;1.10;0.52;;;;;;;;;;5109144;27;20027;-73
2022/10/01 10:07:58;;;;;;;0.05;0.05;;;;;;;;;;5127796;27;20023;-74
2022/10/01 10:10:35;;;;;;;0.00;0.00;;;;;;;;;;5115447;27;20023;-74
2022/10/01 10:13:23;;;;;;;5.43;5.13;;;;;;;;;;5123855;27;20023;-74
2022/10/01 10:15:56;;;;;;;0.08;0.05;;;;;;;;;;5129835;27;20370;-74
2022/10/01 10:18:29;;;;;;;1.83;1.45;;;;;;;;;;5130007;27;20480;-73
2022/10/01 10:20:57;;;;;;;0.00;0.00;;;;;;;;;;5133783;27;20080;-74
2022/10/01 10:23:25;;;;;;;0.10;0.10;;;;;;;;;;5112998;27;20080;-74
2022/10/01 10:26:02;;;;;;;0.65;0.65;;;;;;;;;;5134028;27;20076;-74
2022/10/01 10:28:30;;;;;;;0.00;0.00;;;;;;;;;;5129466;27;20465;-75
2022/10/01 10:30:57;;;;;;;0.00;0.00;;;;;;;;;;5133452;27;20026;-75
2022/10/01 10:33:25;;;;;;;0.00;0.00;;;;;;;;;;5115402;27;20430;-74
2022/10/01 10:36:00;;;;;;;0.03;0.03;;;;;;;;;;5128582;27;20019;-75
2022/10/01 10:38:29;;;;;;;7.18;0.63;;;;;;;;;;5108324;27;20034;-75
2022/10/01 10:40:56;;;;;;;0.00;0.00;;;;;;;;;;5125677;27;20039;-75
2022/10/01 10:43:25;;;;;;;0.10;0.10;;;;;;;;;;5108564;27;20034;-75
2022/10/01 10:45:55;;;;;;;0.00;0.00;;;;;;;;;;5132530;27;20633;-75
2022/10/01 10:48:24;;;;;;;0.00;0.00;;;;;;;;;;5127209;27;20026;-76
2022/10/01 10:50:57;;;;;;;0.00;0.00;;;;;;;;;;5116475;27;20023;-75
2022/10/01 10:53:26;;;;;;;0.25;0.25;;;;;;;;;;5109897;28;20020;-74
2022/10/01 10:55:59;;;;;;;0.00;0.00;;;;;;;;;;5113942;27;20023;-75
2022/10/01 10:58:27;;;;;;;0.00;0.00;;;;;;;;;;5129099;27;20028;-75
2022/10/01 11:00:55;;;;;;;0.10;0.10;;;;;;;;;;5106457;27;20028;-74
2022/10/01 11:03:23;;;;;;;0.00;0.00;;;;;;;;;;5107947;28;20024;-75
2022/10/01 11:05:50;;;;;;;0.10;0.10;;;;;;;;;;5127245;27;20031;-75
2022/10/01 11:08:23;;;;;;;0.22;0.22;;;;;;;;;;5101521;27;20102;-75
2022/10/01 11:11:08;;;;;;;0.00;0.00;;;;;;;;;;5123197;27;20030;-73
2022/10/01 11:13:38;;;;;;;0.73;0.73;;;;;;;;;;5114583;28;20024;-74
2022/10/01 11:16:23;;;;;;;0.43;0.43;;;;;;;;;;5113746;28;20026;-75
2022/10/01 11:19:04;;;;;;;0.00;0.00;;;;;;;;;;5113777;28;20034;-74
2022/10/01 11:21:46;;;;;;;0.20;0.20;;;;;;;;;;5102500;28;20023;-75
2022/10/01 11:24:16;;;;;;;0.00;0.00;;;;;;;;;;5107294;28;20028;-73
2022/10/01 11:26:48;;;;;;;1.15;0.63;;;;;;;;;;5101441;28;20473;-74
2022/10/01 11:29:30;;;;;;;0.00;0.00;;;;;;;;;;5110428;28;20027;-75
2022/10/01 11:32:10;;;;;;;0.00;0.00;;;;;;;;;;5120491;28;20469;-75
2022/10/01 11:34:41;;;;;;;0.15;0.15;;;;;;;;;;5105589;28;20476;-75
2022/10/01 11:37:17;;;;;;;0.57;0.57;;;;;;;;;;5111648;28;20027;-75
2022/10/01 11:39:44;;;;;;;0.00;0.00;;;;;;;;;;5122307;27;20031;-75
2022/10/01 11:42:14;;;;;;;1.73;1.67;;;;;;;;;;5127487;27;20035;-75
2022/10/01 11:44:45;;;;;;;0.00;0.00;;;;;;;;;;5103763;28;20055;-75
2022/10/01 11:47:21;;;;;;;0.00;0.00;;;;;;;;;;5135913;28;20004;-73
2022/10/01 11:50:06;;;;;;;0.00;0.00;;;;;;;;;;5146900;28;20039;-76
2022/10/01 11:52:36;;;;;;;0.57;0.57;;;;;;;;;;5134291;28;20497;-75
2022/10/01 12:00:48;;;;;;;0.00;0.00;;;;;;;;;;5123227;27;20499;-74
2022/10/01 12:03:18;;;;;;;0.00;0.00;;;;;;;;;;5137668;27;20051;-75
2022/10/01 12:05:45;;;;;;;0.80;0.80;;;;;;;;;;5139449;27;20480;-75
2022/10/01 12:08:11;;;;;;;0.00;0.00;;;;;;;;;;5141110;27;20019;-75
2022/10/01 12:10:40;;;;;;;0.20;0.20;;;;;;;;;;5139578;27;20067;-74
2022/10/01 12:13:21;;;;;;;0.00;0.00;;;;;;;;;;5154574;27;20018;-74
2022/10/01 12:16:08;;;;;;;1.08;0.93;;;;;;;;;;5120065;27;20031;-74
2022/10/01 12:18:58;;;;;;;0.45;0.43;;;;;;;;;;5119682;27;20037;-75
2022/10/01 12:21:31;;;;;;;0.00;0.00;;;;;;;;;;5122841;27;20446;-75
2022/10/01 12:24:01;;;;;;;0.00;0.00;;;;;;;;;;5155317;27;20035;-76
2022/10/01 12:26:36;;;;;;;0.00;0.00;;;;;;;;;;5120883;27;20019;-75
2022/10/01 12:29:21;;;;;;;2.45;2.28;;;;;;;;;;5135344;27;20024;-75
2022/10/01 12:31:51;;;;;;;0.15;0.15;;;;;;;;;;5116092;27;20031;-75
2022/10/01 12:34:25;;;;;;;0.00;0.00;;;;;;;;;;5117166;28;20467;-75
2022/10/01 12:36:52;;;;;;;0.10;0.10;;;;;;;;;;5128278;27;20050;-76
2022/10/01 12:39:28;;;;;;;0.00;0.00;;;;;;;;;;5122179;27;20023;-76
2022/10/01 12:42:00;;;;;;;0.57;0.57;;;;;;;;;;5124926;27;20489;-75
2022/10/01 12:44:26;;;;;;;0.00;0.00;;;;;;;;;;5110800;27;20037;-76
2022/10/01 12:47:10;;;;;;;0.00;0.00;;;;;;;;;;5099439;28;20347;-76
2022/10/01 12:49:39;;;;;;;0.00;0.00;;;;;;;;;;5117356;27;20485;-75
2022/10/01 12:52:06;;;;;;;0.00;0.00;;;;;;;;;;5127324;27;20031;-76
2022/10/01 12:54:44;;;;;;;0.00;0.00;;;;;;;;;;5119291;27;20541;-75
2022/10/01 12:57:31;;;;;;;0.00;0.00;;;;;;;;;;5126560;27;20139;-75
2022/10/01 13:00:01;;;;;;;0.00;0.00;;;;;;;;;;5122836;27;20023;-75
2022/10/01 13:02:40;;;;;;;0.00;0.00;;;;;;;;;;5123825;27;20097;-77
2022/10/01 13:05:07;;;;;;;0.00;0.00;;;;;;;;;;5119966;27;20028;-76
2022/10/01 13:07:49;;;;;;;2.78;2.08;;;;;;;;;;5124719;27;20027;-78
2022/10/01 13:10:38;;;;;;;0.00;0.00;;;;;;;;;;5142842;27;20020;-77
2022/10/01 13:13:24;;;;;;;0.00;0.00;;;;;;;;;;5126728;27;20085;-76
2022/10/01 13:15:58;;;;;;;0.00;0.00;;;;;;;;;;5142842;27;20051;-75
2022/10/01 13:18:43;;;;;;;0.00;0.00;;;;;;;;;;5103266;27;20036;-76
2022/10/01 13:21:13;;;;;;;0.80;0.68;;;;;;;;;;5126348;27;20124;-76
2022/10/01 13:23:58;;;;;;;0.00;0.00;;;;;;;;;;5123711;27;20556;-76
2022/10/01 13:26:43;;;;;;;2.20;2.10;;;;;;;;;;5139627;27;20019;-76
2022/10/01 13:29:12;;;;;;;0.00;0.00;;;;;;;;;;5114714;27;20030;-75
2022/10/01 13:31:50;;;;;;;1.10;1.10;;;;;;;;;;5129643;27;20023;-76
2022/10/01 13:34:45;;;;;;;0.00;0.00;;;;;;;;;;5126125;27;20480;-77
2022/10/01 13:37:16;;;;;;;6.65;6.35;;;;;;;;;;5112850;27;20453;-76
2022/10/01 13:39:43;;;;;;;2.15;2.05;;;;;;;;;;5129191;27;20038;-76
2022/10/01 13:42:29;;;;;;;0.75;0.75;;;;;;;;;;5124023;27;20475;-75
2022/10/01 13:45:04;;;;;;;0.00;0.00;;;;;;;;;;5115359;27;20476;-76
2022/10/01 13:47:31;;;;;;;0.00;0.00;;;;;;;;;;5118205;27;20034;-76
2022/10/01 13:50:05;;;;;;;0.13;0.13;;;;;;;;;;5101743;27;20015;-75
2022/10/01 13:52:32;;;;;;;0.10;0.10;;;;;;;;;;5120960;27;20374;-77
2022/10/01 13:54:59;;;;;;;2.83;1.45;;;;;;;;;;5128306;27;20027;-77
2022/10/01 13:57:33;;;;;;;0.00;0.00;;;;;;;;;;5124952;27;20083;-77
2022/10/01 14:00:12;;;;;;;0.55;0.55;;;;;;;;;;5135841;27;20420;-75
2022/10/01 14:02:39;;;;;;;2.70;2.60;;;;;;;;;;5135947;27;20064;-76
2022/10/01 14:05:15;;;;;;;2.17;2.10;;;;;;;;;;5119568;27;20026;-76
2022/10/01 14:07:41;;;;;;;4.20;4.00;;;;;;;;;;5141000;27;20326;-77
2022/10/01 14:10:10;;;;;;;1.08;1.08;;;;;;;;;;5143907;27;20019;-76
2022/10/01 14:16:02;;;;;;;0.52;0.52;;;;;;;;;;5057430;27;20029;-76
2022/10/01 14:18:38;;;;;;;0.43;0.43;;;;;;;;;;5125763;27;20019;-76
2022/10/01 14:21:07;;;;;;;2.05;1.95;;;;;;;;;;5133993;27;20015;-75
2022/10/01 14:23:41;;;;;;;0.73;0.73;;;;;;;;;;5127776;27;20092;-75
2022/10/01 14:26:13;;;;;;;1.08;1.08;;;;;;;;;;5125661;27;20051;-76
2022/10/01 14:28:43;;;;;;;0.00;0.00;;;;;;;;;;5109822;27;20030;-74
2022/10/01 14:31:21;;;;;;;1.27;1.27;;;;;;;;;;5128027;27;20027;-75
2022/10/01 14:33:50;;;;;;;0.00;0.00;;;;;;;;;;5118058;27;20015;-76
2022/10/01 14:36:33;;;;;;;0.00;0.00;;;;;;;;;;5135940;27;20034;-76
2022/10/01 14:39:23;;;;;;;0.00;0.00;;;;;;;;;;5133281;27;20469;-76
2022/10/01 14:41:51;;;;;;;0.80;0.80;;;;;;;;;;5117728;27;20482;-77
2022/10/01 14:44:20;;;;;;;0.00;0.00;;;;;;;;;;5109084;27;20071;-76
2022/10/01 14:46:46;;;;;;;1.02;1.02;;;;;;;;;;5128318;27;20011;-77
2022/10/01 14:49:33;;;;;;;0.15;0.15;;;;;;;;;;5136520;27;20023;-75
2022/10/01 14:52:00;;;;;;;0.00;0.00;;;;;;;;;;5133573;27;20064;-76
2022/10/01 14:54:28;;;;;;;0.00;0.00;;;;;;;;;;5155673;27;20048;-76
2022/10/01 14:56:55;;;;;;;0.32;0.32;;;;;;;;;;5155109;27;20053;-75
2022/10/01 14:59:26;;;;;;;0.00;0.00;;;;;;;;;;5150280;27;20533;-75
2022/10/01 15:02:00;;;;;;;0.00;0.00;;;;;;;;;;5125402;27;20442;-76
2022/10/01 15:04:26;;;;;;;0.30;0.30;;;;;;;;;;5108391;27;20084;-76
2022/10/01 15:06:53;;;;;;;0.45;0.45;;;;;;;;;;5127849;27;20468;-77
2022/10/01 15:09:19;;;;;;;0.03;0.03;;;;;;;;;;5120785;27;20024;-76
2022/10/01 15:11:50;;;;;;;7.88;4.65;;;;;;;;;;5095095;28;20477;-77
2022/10/01 15:14:18;;;;;;;3.03;2.13;;;;;;;;;;5095158;28;20031;-76
2022/10/01 15:16:45;;;;;;;1.23;1.23;;;;;;;;;;5110248;27;20105;-78